createdAt,value
2023-02-09T00:01:21.721Z,47.40
2023-02-09T00:03:50.441Z,47.40
2023-02-09T00:06:23.059Z,46.50
2023-02-09T00:08:52.021Z,46.40
2023-02-09T00:11:42.653Z,46.60
2023-02-09T00:14:10.057Z,46.70
2023-02-09T00:16:38.173Z,46.30
2023-02-09T00:19:06.352Z,46.60
2023-02-09T00:21:35.974Z,47.10
2023-02-09T00:24:04.399Z,47.10
2023-02-09T00:26:32.598Z,47.50
2023-02-09T00:29:00.762Z,46.90
2023-02-09T00:31:28.996Z,47.10
2023-02-09T00:33:57.172Z,47.20
2023-02-09T00:36:27.449Z,47.00
2023-02-09T00:38:57.343Z,48.10
2023-02-09T00:41:39.334Z,48.20
2023-02-09T00:44:07.417Z,48.20
2023-02-09T00:46:35.590Z,47.60
2023-02-09T00:49:04.128Z,48.50
2023-02-09T00:51:34.166Z,48.20
2023-02-09T00:54:05.407Z,47.80
2023-02-09T00:56:33.688Z,48.10
2023-02-09T00:59:01.857Z,47.70
2023-02-09T01:01:30.242Z,47.60
2023-02-09T01:03:58.654Z,47.50
2023-02-09T01:06:26.880Z,47.40
2023-02-09T01:08:55.111Z,47.40
2023-02-09T01:11:28.203Z,47.50
2023-02-09T01:13:57.992Z,47.40
2023-02-09T01:16:28.706Z,47.60
2023-02-09T01:18:57.074Z,47.80
2023-02-09T01:21:25.869Z,49.60
2023-02-09T01:23:54.032Z,49.60
2023-02-09T01:26:22.278Z,48.70
2023-02-09T01:28:53.269Z,48.50
2023-02-09T01:31:25.819Z,48.50
2023-02-09T01:33:55.437Z,48.70
2023-02-09T01:36:23.825Z,48.70
2023-02-09T01:38:52.077Z,48.50
2023-02-09T01:41:20.168Z,48.90
2023-02-09T01:43:59.101Z,49.30
2023-02-09T01:46:30.754Z,49.60
2023-02-09T01:49:05.160Z,50.00
2023-02-09T01:51:37.454Z,50.60
2023-02-09T01:54:09.233Z,51.10
2023-02-09T01:56:40.403Z,51.30
2023-02-09T01:59:11.196Z,51.70
2023-02-09T02:01:41.486Z,51.70
2023-02-09T02:04:09.894Z,51.70
2023-02-09T02:06:38.638Z,51.00
2023-02-09T02:09:12.308Z,50.60
2023-02-09T02:11:42.337Z,50.60
2023-02-09T02:17:45.945Z,50.60
2023-02-09T02:20:50.731Z,50.60
2023-02-09T02:23:27.117Z,50.50
2023-02-09T02:26:26.625Z,50.90
2023-02-09T02:29:30.638Z,50.30
2023-02-09T02:32:40.736Z,50.20
2023-02-09T02:35:19.124Z,50.50
2023-02-09T02:38:00.224Z,50.70
2023-02-09T02:40:41.193Z,51.00
2023-02-09T02:43:19.510Z,49.80
2023-02-09T02:45:50.728Z,50.20
2023-02-09T02:48:29.107Z,50.00
2023-02-09T02:51:03.900Z,50.20
2023-02-09T02:53:34.956Z,50.40
2023-02-09T02:56:08.345Z,50.80
2023-02-09T02:58:39.466Z,51.60
2023-02-09T03:01:10.838Z,51.30
2023-02-09T03:03:40.518Z,51.30
2023-02-09T03:06:11.900Z,52.10
2023-02-09T03:08:52.289Z,54.00
2023-02-09T03:11:22.320Z,52.70
2023-02-09T03:14:14.365Z,51.90
2023-02-09T03:16:47.292Z,51.70
2023-02-09T03:19:24.189Z,52.40
2023-02-09T03:21:58.027Z,51.90
2023-02-09T03:24:35.984Z,51.90
2023-02-09T03:27:11.730Z,51.90
2023-02-09T03:29:42.320Z,52.10
2023-02-09T03:32:10.686Z,51.80
2023-02-09T03:34:39.061Z,51.60
2023-02-09T03:37:08.761Z,51.50
2023-02-09T03:39:36.847Z,51.60
2023-02-09T03:42:05.238Z,51.90
2023-02-09T03:44:33.446Z,52.00
2023-02-09T03:47:03.443Z,52.10
2023-02-09T03:49:33.707Z,52.30
2023-02-09T03:52:02.946Z,52.60
2023-02-09T03:54:34.332Z,53.00
2023-02-09T03:57:03.055Z,53.50
2023-02-09T03:59:35.483Z,53.40
2023-02-09T04:02:04.986Z,53.40
2023-02-09T04:04:33.189Z,53.30
2023-02-09T04:07:01.514Z,53.70
2023-02-09T04:09:30.017Z,53.90
2023-02-09T04:11:59.447Z,54.80
2023-02-09T04:14:27.729Z,54.40
2023-02-09T04:16:55.907Z,54.70
2023-02-09T04:19:24.072Z,55.10
2023-02-09T04:21:52.160Z,55.20
2023-02-09T04:24:28.811Z,55.70
2023-02-09T04:26:57.020Z,56.70
2023-02-09T04:29:26.928Z,56.40
2023-02-09T04:31:55.447Z,54.60
2023-02-09T04:34:24.617Z,54.00
2023-02-09T04:36:52.770Z,54.20
2023-02-09T04:39:20.936Z,53.90
2023-02-09T04:41:49.070Z,53.60
2023-02-09T04:44:17.196Z,54.00
2023-02-09T04:46:46.880Z,53.40
2023-02-09T04:49:15.102Z,53.30
2023-02-09T04:51:43.451Z,53.60
2023-02-09T04:54:11.615Z,53.60
2023-02-09T04:56:39.716Z,53.90
2023-02-09T04:59:25.336Z,54.10
2023-02-09T05:01:54.985Z,54.20
2023-02-09T05:04:23.488Z,54.50
2023-02-09T05:06:51.695Z,54.90
2023-02-09T05:09:19.755Z,54.10
2023-02-09T05:11:47.894Z,53.90
2023-02-09T05:14:16.455Z,54.00
2023-02-09T05:16:44.531Z,54.30
2023-02-09T05:19:14.452Z,54.30
2023-02-09T05:21:42.848Z,55.40
2023-02-09T05:24:11.128Z,54.70
2023-02-09T05:26:39.468Z,55.00
2023-02-09T05:29:07.692Z,53.90
2023-02-09T05:31:36.040Z,53.60
2023-02-09T05:34:04.360Z,53.60
2023-02-09T05:36:33.947Z,54.00
2023-02-09T05:39:02.073Z,55.00
2023-02-09T05:41:47.814Z,54.70
2023-02-09T05:44:16.299Z,55.10
2023-02-09T05:46:44.417Z,55.70
2023-02-09T05:49:12.624Z,56.40
2023-02-09T05:51:42.185Z,55.20
2023-02-09T05:54:10.647Z,54.40
2023-02-09T05:56:39.081Z,53.90
2023-02-09T05:59:07.313Z,53.60
2023-02-09T06:01:35.549Z,54.20
2023-02-09T06:04:03.848Z,53.50
2023-02-09T06:06:32.065Z,53.50
2023-02-09T06:09:01.662Z,53.80
2023-02-09T06:11:30.015Z,53.60
2023-02-09T06:13:58.244Z,53.60
2023-02-09T06:16:26.626Z,53.70
2023-02-09T06:18:55.271Z,54.00
2023-02-09T06:21:23.950Z,54.50
2023-02-09T06:23:52.099Z,54.40
2023-02-09T06:26:21.881Z,54.30
2023-02-09T06:28:50.210Z,54.40
2023-02-09T06:31:18.406Z,54.30
2023-02-09T06:33:46.589Z,54.00
2023-02-09T06:36:14.740Z,53.90
2023-02-09T06:38:42.954Z,53.90
2023-02-09T06:41:11.055Z,54.10
2023-02-09T06:43:40.593Z,54.30
2023-02-09T06:46:10.167Z,54.60
2023-02-09T06:48:38.569Z,54.30
2023-02-09T06:51:10.015Z,54.20
2023-02-09T06:53:39.326Z,54.10
2023-02-09T06:56:08.386Z,54.60
2023-02-09T06:58:38.030Z,54.40
2023-02-09T07:01:09.736Z,54.80
2023-02-09T07:03:37.933Z,54.50
2023-02-09T07:06:08.016Z,54.90
2023-02-09T07:08:36.742Z,55.10
2023-02-09T07:11:05.957Z,55.20
2023-02-09T07:13:34.721Z,54.70
2023-02-09T07:16:04.428Z,54.70
2023-02-09T07:18:34.490Z,54.90
2023-02-09T07:21:05.487Z,54.90
2023-02-09T07:23:33.874Z,55.20
2023-02-09T07:26:06.262Z,55.10
2023-02-09T07:28:35.039Z,55.00
2023-02-09T07:31:05.853Z,55.50
2023-02-09T07:33:35.744Z,55.90
2023-02-09T07:36:05.720Z,56.20
2023-02-09T07:38:34.825Z,56.00
2023-02-09T07:41:04.812Z,55.60
2023-02-09T07:43:33.797Z,55.60
2023-02-09T07:46:02.801Z,55.50
2023-02-09T07:48:31.460Z,55.90
2023-02-09T07:51:01.234Z,56.90
2023-02-09T07:53:30.096Z,57.70
2023-02-09T07:55:58.431Z,58.80
2023-02-09T07:58:26.534Z,58.20
2023-02-09T08:00:54.657Z,57.30
2023-02-09T08:03:24.909Z,57.20
2023-02-09T08:05:59.406Z,57.30
2023-02-09T08:08:28.961Z,60.30
2023-02-09T08:10:59.421Z,59.90
2023-02-09T08:13:30.216Z,59.30
2023-02-09T08:16:03.044Z,58.50
2023-02-09T08:18:35.808Z,59.00
2023-02-09T08:21:05.976Z,59.90
2023-02-09T08:23:38.946Z,60.70
2023-02-09T08:26:10.489Z,65.50
2023-02-09T08:28:44.899Z,68.60
2023-02-09T08:31:14.227Z,70.30
2023-02-09T08:33:42.637Z,70.70
2023-02-09T08:36:13.317Z,72.30
2023-02-09T08:38:43.053Z,70.30
2023-02-09T08:41:13.986Z,69.40
2023-02-09T08:43:42.298Z,69.80
2023-02-09T08:46:12.861Z,70.90
2023-02-09T08:48:43.582Z,70.50
2023-02-09T08:51:14.460Z,67.60
2023-02-09T08:53:47.791Z,65.50
2023-02-09T08:56:15.976Z,63.40
2023-02-09T08:58:44.253Z,62.90
2023-02-09T09:01:13.601Z,61.90
2023-02-09T09:03:42.389Z,62.30
2023-02-09T09:06:12.581Z,60.50
2023-02-09T09:08:41.687Z,59.20
2023-02-09T09:11:13.177Z,58.90
2023-02-09T09:13:42.022Z,58.60
2023-02-09T09:16:16.267Z,58.00
2023-02-09T09:18:45.505Z,57.70
2023-02-09T09:21:13.927Z,57.10
2023-02-09T09:23:42.138Z,56.60
2023-02-09T09:26:11.744Z,56.30
2023-02-09T09:28:40.177Z,56.20
2023-02-09T09:31:09.952Z,54.90
2023-02-09T09:33:38.613Z,54.20
2023-02-09T09:36:08.158Z,55.80
2023-02-09T09:38:37.103Z,54.30
2023-02-09T09:41:06.269Z,54.90
2023-02-09T09:43:39.441Z,54.70
2023-02-09T09:46:13.253Z,54.50
2023-02-09T09:48:45.726Z,54.80
2023-02-09T09:51:19.830Z,54.10
2023-02-09T09:53:52.175Z,53.40
2023-02-09T09:56:22.470Z,52.90
2023-02-09T09:58:52.574Z,53.10
2023-02-09T10:01:23.416Z,52.90
2023-02-09T10:03:51.543Z,51.30
2023-02-09T10:06:22.357Z,53.80
2023-02-09T10:08:56.483Z,54.00
2023-02-09T10:11:30.386Z,52.40
2023-02-09T10:14:00.013Z,50.70
2023-02-09T10:16:34.500Z,52.40
2023-02-09T10:19:05.301Z,54.50
2023-02-09T10:21:36.636Z,53.00
2023-02-09T10:24:13.071Z,52.10
2023-02-09T10:26:43.038Z,49.80
2023-02-09T10:29:28.436Z,50.30
2023-02-09T10:32:04.435Z,49.90
2023-02-09T10:34:41.658Z,49.00
2023-02-09T10:37:20.829Z,48.30
2023-02-09T10:40:01.961Z,49.60
2023-02-09T10:42:32.641Z,47.30
2023-02-09T10:45:09.568Z,46.70
2023-02-09T10:47:37.682Z,47.80
2023-02-09T10:50:17.120Z,48.00
2023-02-09T10:52:56.349Z,46.10
2023-02-09T10:55:28.643Z,46.60
2023-02-09T10:58:20.876Z,48.00
2023-02-09T11:00:54.843Z,47.20
2023-02-09T11:03:25.314Z,48.60
2023-02-09T11:06:02.866Z,51.60
2023-02-09T11:08:43.086Z,50.80
2023-02-09T11:11:27.864Z,50.10
2023-02-09T11:13:56.035Z,48.20
2023-02-09T11:16:44.358Z,47.40
2023-02-09T11:19:44.071Z,47.00
2023-02-09T11:22:15.191Z,43.70
2023-02-09T11:24:52.319Z,44.80
2023-02-09T11:27:38.000Z,45.30
2023-02-09T11:30:21.925Z,43.40
2023-02-09T11:32:56.533Z,43.90
2023-02-09T11:35:29.526Z,42.60
2023-02-09T11:38:02.745Z,41.70
2023-02-09T11:40:37.341Z,43.20
2023-02-09T11:43:19.389Z,41.50
2023-02-09T11:45:49.525Z,41.00
2023-02-09T11:48:24.944Z,38.70
2023-02-09T11:51:00.062Z,38.20
2023-02-09T11:53:35.872Z,39.00
2023-02-09T11:56:06.267Z,37.70
2023-02-09T11:58:45.714Z,39.50
2023-02-09T12:01:27.333Z,41.80
2023-02-09T12:04:04.134Z,39.70
2023-02-09T12:06:38.916Z,41.90
2023-02-09T12:09:16.863Z,40.80
2023-02-09T12:11:53.922Z,40.40
2023-02-09T12:14:31.989Z,42.10
2023-02-09T12:17:06.361Z,40.70
2023-02-09T12:19:38.919Z,41.50
2023-02-09T12:22:43.144Z,43.90
2023-02-09T12:25:22.667Z,41.70
2023-02-09T12:28:42.258Z,40.50
2023-02-09T12:31:14.517Z,41.00
2023-02-09T12:34:14.792Z,42.20
2023-02-09T12:37:19.782Z,39.30
2023-02-09T12:40:18.540Z,41.00
2023-02-09T12:43:03.588Z,39.70
2023-02-09T12:45:35.473Z,41.20
2023-02-09T12:48:19.264Z,39.70
2023-02-09T12:50:53.619Z,38.70
2023-02-09T12:53:47.905Z,39.00
2023-02-09T12:56:31.057Z,39.80
2023-02-09T12:59:24.125Z,41.30
2023-02-09T13:02:26.194Z,38.40
2023-02-09T13:05:06.709Z,38.40
2023-02-09T13:07:45.793Z,39.40
2023-02-09T13:10:25.512Z,37.70
2023-02-09T13:12:59.631Z,39.60
2023-02-09T13:15:34.509Z,40.90
2023-02-09T13:18:10.089Z,38.70
2023-02-09T13:21:11.302Z,39.40
2023-02-09T13:23:50.728Z,40.10
2023-02-09T13:26:23.870Z,39.90
2023-02-09T13:29:19.407Z,40.50
2023-02-09T13:31:58.107Z,41.00
2023-02-09T13:34:33.369Z,40.50
2023-02-09T13:37:10.978Z,42.00
2023-02-09T13:39:40.838Z,40.40
2023-02-09T13:42:22.621Z,40.30
2023-02-09T13:44:53.548Z,40.30
2023-02-09T13:47:23.282Z,39.70
2023-02-09T13:49:59.741Z,40.20
2023-02-09T13:52:33.375Z,40.70
2023-02-09T13:55:12.486Z,43.10
2023-02-09T13:57:44.499Z,42.20
2023-02-09T14:00:23.681Z,43.80
2023-02-09T14:02:55.075Z,43.80
2023-02-09T14:05:33.390Z,43.90
2023-02-09T14:08:02.630Z,43.10
2023-02-09T14:10:31.905Z,42.80
2023-02-09T14:13:04.964Z,45.20
2023-02-09T14:15:55.377Z,43.40
2023-02-09T14:18:33.353Z,43.00
2023-02-09T14:21:15.995Z,42.00
2023-02-09T14:23:46.404Z,42.50
2023-02-09T14:26:24.805Z,42.80
2023-02-09T14:29:04.916Z,42.40
2023-02-09T14:31:36.378Z,43.80
2023-02-09T14:34:04.674Z,41.80
2023-02-09T14:36:34.297Z,42.30
2023-02-09T14:39:12.775Z,41.80
2023-02-09T14:41:41.032Z,43.40
2023-02-09T14:44:21.494Z,43.70
2023-02-09T14:46:51.591Z,44.20
2023-02-09T14:49:20.561Z,43.60
2023-02-09T14:51:50.025Z,44.70
2023-02-09T14:54:25.138Z,43.80
2023-02-09T14:56:54.265Z,44.80
2023-02-09T14:59:24.686Z,44.60
2023-02-09T15:01:55.042Z,43.80
2023-02-09T15:04:23.614Z,43.50
2023-02-09T15:07:01.738Z,43.20
2023-02-09T15:09:35.447Z,43.20
2023-02-09T15:12:07.467Z,43.20
2023-02-09T15:14:42.056Z,43.40
2023-02-09T15:17:13.775Z,43.40
2023-02-09T15:19:42.144Z,42.40
2023-02-09T15:22:13.569Z,43.50
2023-02-09T15:24:42.327Z,43.70
2023-02-09T15:27:27.392Z,44.10
2023-02-09T15:30:00.118Z,43.10
2023-02-09T15:32:29.415Z,43.50
2023-02-09T15:34:57.567Z,42.60
2023-02-09T15:37:28.329Z,44.20
2023-02-09T15:40:00.228Z,44.40
2023-02-09T15:42:45.835Z,43.20
2023-02-09T15:45:39.103Z,44.50
2023-02-09T15:48:07.986Z,44.70
2023-02-09T15:50:38.988Z,41.10
2023-02-09T15:53:09.254Z,43.00
2023-02-09T15:55:38.336Z,44.70
2023-02-09T15:58:14.626Z,46.00
2023-02-09T16:00:44.484Z,45.80
2023-02-09T16:03:16.330Z,46.00
2023-02-09T16:05:45.240Z,45.10
2023-02-09T16:08:20.505Z,43.70
2023-02-09T16:10:49.319Z,43.90
2023-02-09T16:13:18.788Z,44.10
2023-02-09T16:15:48.992Z,43.90
2023-02-09T16:18:17.109Z,44.00
2023-02-09T16:20:48.457Z,42.80
2023-02-09T16:23:21.236Z,42.10
2023-02-09T16:25:50.979Z,42.00
2023-02-09T16:28:20.373Z,41.50
2023-02-09T16:30:52.766Z,42.30
2023-02-09T16:33:21.766Z,41.50
2023-02-09T16:35:54.046Z,42.70
2023-02-09T16:38:23.730Z,44.90
2023-02-09T16:40:52.846Z,46.30
2023-02-09T16:43:22.042Z,45.60
2023-02-09T16:46:02.759Z,45.10
2023-02-09T16:48:34.535Z,44.50
2023-02-09T16:51:03.329Z,44.00
2023-02-09T16:53:33.782Z,42.90
2023-02-09T16:56:03.847Z,42.70
2023-02-09T16:58:32.367Z,42.90
2023-02-09T17:01:01.966Z,43.10
2023-02-09T17:03:34.792Z,43.20
2023-02-09T17:06:03.412Z,43.50
2023-02-09T17:08:34.639Z,43.90
2023-02-09T17:11:04.571Z,43.60
2023-02-09T17:13:32.695Z,43.80
2023-02-09T17:16:04.649Z,44.00
2023-02-09T17:18:34.946Z,43.40
2023-02-09T17:21:05.349Z,43.60
2023-02-09T17:23:33.594Z,44.00
2023-02-09T17:26:01.834Z,43.70
2023-02-09T17:28:30.661Z,43.80
2023-02-09T17:31:02.937Z,44.00
2023-02-09T17:33:34.327Z,45.20
2023-02-09T17:36:25.138Z,45.10
2023-02-09T17:38:51.849Z,45.50
2023-02-09T17:41:23.341Z,45.60
2023-02-09T17:43:53.630Z,45.60
2023-02-09T17:46:23.121Z,46.10
2023-02-09T17:48:51.290Z,45.40
2023-02-09T17:51:23.116Z,44.90
2023-02-09T17:53:51.245Z,45.30
2023-02-09T17:56:19.443Z,45.40
2023-02-09T17:58:48.922Z,46.10
2023-02-09T18:01:27.047Z,46.40
2023-02-09T18:03:55.652Z,46.80
2023-02-09T18:06:33.528Z,46.80
2023-02-09T18:09:02.609Z,47.00
2023-02-09T18:11:56.513Z,46.40
2023-02-09T18:14:26.395Z,46.70
2023-02-09T18:16:56.015Z,46.30
2023-02-09T18:19:25.046Z,46.90
2023-02-09T18:21:54.768Z,46.10
2023-02-09T18:24:24.992Z,46.30
2023-02-09T18:26:53.206Z,46.80
2023-02-09T18:29:23.585Z,47.00
2023-02-09T18:31:52.216Z,47.00
2023-02-09T18:34:21.670Z,47.20
2023-02-09T18:36:49.766Z,47.50
2023-02-09T18:39:18.122Z,48.00
2023-02-09T18:41:53.791Z,48.50
2023-02-09T18:44:24.476Z,48.90
2023-02-09T18:46:52.628Z,49.30
2023-02-09T18:49:22.090Z,49.70
2023-02-09T18:51:52.324Z,49.80
2023-02-09T18:54:20.628Z,49.80
2023-02-09T18:56:48.756Z,50.00
2023-02-09T18:59:17.727Z,50.20
2023-02-09T19:01:46.545Z,50.70
2023-02-09T19:04:15.102Z,51.10
2023-02-09T19:06:44.525Z,52.70
2023-02-09T19:09:12.705Z,51.20
2023-02-09T19:11:40.776Z,51.00
2023-02-09T19:14:26.212Z,50.90
2023-02-09T19:16:54.481Z,51.50
2023-02-09T19:19:22.640Z,50.70
2023-02-09T19:21:52.290Z,51.00
2023-02-09T19:24:20.618Z,50.50
2023-02-09T19:26:48.785Z,50.00
2023-02-09T19:29:17.540Z,50.20
2023-02-09T19:31:46.520Z,50.60
2023-02-09T19:34:14.616Z,50.90
2023-02-09T19:36:42.750Z,51.00
2023-02-09T19:39:12.692Z,51.70
2023-02-09T19:41:40.864Z,50.90
2023-02-09T19:44:08.970Z,50.90
2023-02-09T19:46:37.104Z,51.00
2023-02-09T19:49:05.233Z,51.40
2023-02-09T19:51:33.328Z,51.80
2023-02-09T19:54:01.624Z,53.10
2023-02-09T19:56:31.157Z,52.90
2023-02-09T19:58:59.316Z,55.60
2023-02-09T20:01:29.571Z,55.30
2023-02-09T20:03:57.744Z,53.80
2023-02-09T20:06:26.217Z,53.80
2023-02-09T20:08:54.338Z,52.60
2023-02-09T20:11:22.780Z,52.50
2023-02-09T20:13:53.786Z,52.60
2023-02-09T20:16:25.367Z,53.10
2023-02-09T20:18:55.124Z,53.40
2023-02-09T20:21:24.824Z,54.60
2023-02-09T20:23:55.159Z,55.10
2023-02-09T20:26:26.661Z,55.10
2023-02-09T20:28:57.585Z,54.30
2023-02-09T20:31:28.269Z,52.90
2023-02-09T20:33:57.091Z,52.70
2023-02-09T20:36:25.875Z,53.70
2023-02-09T20:38:54.096Z,57.00
2023-02-09T20:41:22.516Z,62.70
2023-02-09T20:44:08.194Z,62.80
2023-02-09T20:46:55.261Z,60.80
2023-02-09T20:49:25.828Z,59.00
2023-02-09T20:51:53.909Z,58.50
2023-02-09T20:54:22.034Z,61.70
2023-02-09T20:56:50.138Z,59.70
2023-02-09T20:59:19.030Z,57.10
2023-02-09T21:01:48.925Z,56.00
2023-02-09T21:04:18.029Z,55.90
2023-02-09T21:06:46.151Z,54.70
2023-02-09T21:09:16.427Z,54.50
2023-02-09T21:11:44.582Z,54.40
2023-02-09T21:14:21.863Z,54.40
2023-02-09T21:16:57.446Z,55.50
2023-02-09T21:19:26.457Z,54.70
2023-02-09T21:21:54.898Z,54.60
2023-02-09T21:24:23.564Z,54.60
2023-02-09T21:26:51.632Z,54.50
2023-02-09T21:29:19.768Z,54.40
2023-02-09T21:31:47.987Z,54.90
2023-02-09T21:34:18.051Z,55.50
2023-02-09T21:36:46.173Z,57.20
2023-02-09T21:39:14.550Z,56.90
2023-02-09T21:42:11.448Z,58.30
2023-02-09T21:44:39.569Z,58.10
2023-02-09T21:47:07.897Z,58.00
2023-02-09T21:49:37.431Z,57.60
2023-02-09T21:52:05.882Z,58.00
2023-02-09T21:54:34.215Z,56.80
2023-02-09T21:57:02.808Z,56.70
2023-02-09T21:59:31.436Z,56.80
2023-02-09T22:01:59.722Z,56.70
2023-02-09T22:04:27.861Z,56.70
2023-02-09T22:06:57.377Z,56.40
2023-02-09T22:09:25.537Z,56.20
2023-02-09T22:11:53.640Z,56.30
2023-02-09T22:14:21.730Z,56.00
2023-02-09T22:16:49.914Z,55.80
2023-02-09T22:19:18.047Z,56.10
2023-02-09T22:21:46.095Z,56.90
2023-02-09T22:24:16.668Z,56.00
2023-02-09T22:26:44.948Z,55.80
2023-02-09T22:29:14.333Z,55.60
2023-02-09T22:31:42.821Z,55.50
2023-02-09T22:34:11.038Z,55.40
2023-02-09T22:36:39.936Z,55.90
2023-02-09T22:39:08.809Z,56.10
2023-02-09T22:41:38.441Z,56.50
2023-02-09T22:44:08.549Z,56.70
2023-02-09T22:46:38.767Z,57.50
2023-02-09T22:49:10.577Z,56.70
2023-02-09T22:51:38.722Z,57.40
2023-02-09T22:54:07.487Z,57.30
2023-02-09T22:56:35.692Z,57.40
2023-02-09T22:59:05.164Z,57.50
2023-02-09T23:01:33.313Z,58.00
2023-02-09T23:04:01.595Z,57.30
2023-02-09T23:06:31.033Z,57.00
2023-02-09T23:09:01.328Z,56.70
2023-02-09T23:11:30.524Z,56.90
2023-02-09T23:14:14.513Z,57.00
2023-02-09T23:16:45.691Z,57.00
2023-02-09T23:19:16.358Z,56.30
2023-02-09T23:21:46.697Z,56.60
2023-02-09T23:24:16.494Z,56.70
2023-02-09T23:26:45.458Z,56.20
2023-02-09T23:29:15.542Z,56.20
2023-02-09T23:31:46.298Z,56.20
2023-02-09T23:34:17.317Z,56.30
2023-02-09T23:36:45.903Z,56.50
2023-02-09T23:39:16.586Z,57.90
2023-02-09T23:41:44.781Z,57.60
2023-02-09T23:44:13.153Z,57.50
2023-02-09T23:46:41.643Z,57.60
2023-02-09T23:49:11.672Z,57.40
2023-02-09T23:51:39.888Z,57.40
2023-02-09T23:54:09.043Z,57.40
2023-02-09T23:56:39.977Z,57.10
2023-02-09T23:59:10.140Z,57.80
